Latest Weather Observations for Browse Island

IDW60801

Issued at 2:04 pm WST Saturday 27 May 2017 (issued every 30 minutes, with the page automatically refreshed every 10 minutes)

About weather observations | Map of weather stations | Latest weather observations for WA | Other Formats
Station Details ID: 200784 Name: BROWSE ISLAND Lat: -14.11 Lon: 123.55 Height: 3.7 m
Data from the previous 72 hours. | See also: Recent months at Browse Island
Date/Time
WST
Temp
°C
App
Temp
°C
Dew
Point
°C
Rel
Hum
%
Delta-T
°C
Wind Press
QNH
hPa
Press
MSL
hPa
Rain since
9am
mm
Dir  Spd
km/h
Gust
km/h
Spd
kts
Gust
kts
27/02:00pm 29.0 - - - - E 24 28 13 15 1010.0 1010.8 -
27/01:30pm 29.0 - - - - ESE 26 30 14 16 1011.0 - -
27/01:00pm 29.0 - - - - ESE 26 - 14 - 1011.0 1011.2 -
27/12:30pm 29.0 - - - - ESE 26 - 14 - 1011.0 - -
27/12:00pm 28.6 - - - - ESE 26 - 14 - 1011.0 1011.7 -
27/11:30am 29.0 - - - - ESE 26 - 14 - 1012.0 - -
27/11:00am 28.8 - - - - ESE 26 - 14 - 1012.0 1012.2 -
27/10:30am 29.0 - - - - ESE 24 - 13 - 1012.0 - -
27/10:00am 28.9 - - - - ESE 26 - 14 - 1012.0 1012.6 -
27/09:30am 29.0 - - - - ESE 24 - 13 - 1013.0 - -
27/09:00am 28.7 - - - - E 24 - 13 - 1013.0 1012.9 -
27/08:30am 29.0 - - - - E 24 - 13 - 1013.0 - -
27/08:00am 28.4 - - - - E 24 - 13 - 1012.0 1012.7 -
27/07:30am 28.0 - - - - E 22 - 12 - 1012.0 - -
27/07:00am 28.4 - - - - E 22 28 12 15 1012.5 1012.4 -
27/06:30am 28.0 - - - - E 20 - 11 - 1012.0 - -
27/06:00am 28.0 - - - - E 20 24 11 13 1012.0 1011.9 -
27/05:30am 28.0 - - - - E 17 - 9 - 1011.0 - -
27/05:00am 28.1 - - - - E 19 - 10 - 1011.0 1011.4 -
27/04:30am 28.0 - - - - E 19 - 10 - 1011.0 - -
27/04:00am 28.5 - - - - ENE 20 - 11 - 1011.0 1011.2 -
27/03:30am 29.0 - - - - ENE 20 - 11 - 1011.0 - -
27/03:00am 28.7 - - - - ENE 22 - 12 - 1011.0 1011.1 -
27/02:30am 29.0 - - - - ENE 20 - 11 - 1011.0 - -
27/02:00am 28.4 - - - - ENE 20 24 11 13 1011.8 1011.7 -
27/01:30am 29.0 - - - - ENE 20 - 11 - 1012.0 - -
27/01:00am 28.5 - - - - ENE 22 - 12 - 1012.0 1012.2 -
27/12:30am 29.0 - - - - NE 22 - 12 - 1012.0 - -
27/12:00am 28.7 - - - - NE 24 - 13 - 1012.0 1012.6 -
 
Date/Time
WST
Temp
°C
App
Temp
°C
Dew
Point
°C
Rel
Hum
%
Delta-T
°C
Wind Press
QNH
hPa
Press
MSL
hPa
Rain since
9am
mm
Dir  Spd
km/h
Gust
km/h
Spd
kts
Gust
kts
26/11:30pm 29.0 - - - - ENE 26 - 14 - 1012.0 - -
26/11:00pm 28.8 - - - - NE 24 - 13 - 1012.0 1012.8 -
26/10:30pm 29.0 - - - - NE 26 - 14 - 1012.0 - -
26/10:00pm 28.2 - - - - NE 24 - 13 - 1013.0 1012.9 -
26/09:30pm 28.0 - - - - NE 22 - 12 - 1013.0 - -
26/09:00pm 28.1 - - - - ENE 24 - 13 - 1013.0 1013.0 -
26/08:30pm 28.0 - - - - NE 22 - 12 - 1013.0 - -
26/08:00pm 28.4 - - - - NE 22 - 12 - 1012.0 1012.6 -
26/07:30pm 28.0 - - - - NE 22 - 12 - 1012.0 - -
26/07:00pm 28.4 - - - - NE 24 - 13 - 1012.0 1012.0 -
26/06:30pm 28.0 - - - - ENE 20 - 11 - 1011.0 - -
26/06:00pm 28.3 - - - - ENE 20 - 11 - 1011.0 1011.4 -
26/05:30pm 28.0 - - - - E 20 - 11 - 1011.0 - -
26/05:00pm 28.6 - - - - E 19 - 10 - 1011.0 1011.1 -
26/04:30pm 29.0 - - - - E 17 - 9 - 1011.0 - -
26/04:00pm 28.9 - - - - E 20 - 11 - 1010.0 1010.7 -
26/03:30pm 29.3 - - - - E 20 26 11 14 1010.6 1010.5 -
26/03:00pm 29.2 - - - - E 22 - 12 - 1010.0 1010.5 -
26/02:30pm 29.0 - - - - ESE 24 - 13 - 1010.0 - -
26/02:00pm 29.3 - - - - ESE 20 - 11 - 1010.0 1010.6 -
26/01:30pm 29.0 - - - - ESE 22 - 12 - 1011.0 - -
26/01:00pm 29.3 - - - - ESE 22 - 12 - 1011.0 1011.2 -
26/12:30pm 29.0 - - - - ESE 20 - 11 - 1011.0 - -
26/12:00pm 29.4 - - - - ESE 19 - 10 - 1012.0 1012.0 -
26/11:30am 29.0 - - - - ESE 17 - 9 - 1012.0 - -
26/11:00am 29.1 - - - - ESE 17 - 9 - 1012.0 1012.7 -
26/10:30am 29.0 - - - - E 17 - 9 - 1013.0 - -
26/10:00am 29.0 - - - - E 17 - 9 - 1013.0 1013.1 -
26/09:30am 29.0 - - - - E 15 - 8 - 1013.0 - -
26/09:00am 28.8 - - - - ESE 17 - 9 - 1013.0 1013.4 -
26/08:30am 29.0 - - - - E 15 - 8 - 1013.0 - -
26/08:00am 28.8 - - - - E 17 - 9 - 1013.0 1012.9 -
26/07:30am 29.0 - - - - E 15 - 8 - 1012.0 - -
26/07:00am 28.5 - - - - ENE 19 - 10 - 1012.0 1012.4 -
26/06:30am 28.0 - - - - E 17 - 9 - 1012.0 - -
26/06:00am 28.2 - - - - E 19 - 10 - 1012.0 1012.0 -
26/05:30am 28.0 - - - - E 17 - 9 - 1011.0 - -
26/05:00am 28.0 - - - - E 15 - 8 - 1011.0 1011.7 -
26/04:30am 28.0 - - - - E 13 - 7 - 1011.0 - -
26/04:00am 28.2 - - - - ENE 13 - 7 - 1011.0 1011.5 -
26/03:30am 28.0 - - - - ENE 13 - 7 - 1011.0 - -
26/03:00am 28.4 - - - - ENE 15 - 8 - 1011.0 1011.8 -
26/02:30am 28.0 - - - - E 15 - 8 - 1012.0 - -
26/02:00am 28.4 - - - - ENE 17 - 9 - 1012.0 1012.1 -
26/01:30am 28.0 - - - - ENE 19 - 10 - 1012.0 - -
26/01:00am 28.4 - - - - ENE 19 22 10 12 1012.6 1012.5 -
26/12:30am 29.0 - - - - ENE 20 - 11 - 1012.0 - -
26/12:00am 28.6 - - - - ENE 20 - 11 - 1013.0 1013.0 -
 
Date/Time
WST
Temp
°C
App
Temp
°C
Dew
Point
°C
Rel
Hum
%
Delta-T
°C
Wind Press
QNH
hPa
Press
MSL
hPa
Rain since
9am
mm
Dir  Spd
km/h
Gust
km/h
Spd
kts
Gust
kts
25/11:30pm 29.0 - - - - ENE 20 - 11 - 1013.0 - -
25/11:00pm 28.5 - - - - ENE 20 - 11 - 1013.0 1013.0 -
25/10:30pm 29.0 - - - - ENE 20 - 11 - 1013.0 - -
25/10:00pm 28.8 - - - - ENE 19 - 10 - 1013.0 1013.1 -
25/09:30pm 29.0 - - - - ENE 15 - 8 - 1013.0 - -
25/09:00pm 28.6 - - - - ENE 13 - 7 - 1013.0 1013.0 -
25/08:30pm 29.0 - - - - E 13 - 7 - 1013.0 - -
25/08:00pm 28.7 - - - - E 13 15 7 8 1013.1 1013.0 -
25/07:30pm 29.0 - - - - E 13 - 7 - 1012.0 - -
25/07:00pm 28.8 - - - - ESE 13 - 7 - 1012.0 1012.5 -
25/06:30pm 29.0 - - - - ESE 15 - 8 - 1012.0 - -
25/06:00pm 28.5 - - - - ESE 17 19 9 10 1012.0 1011.9 -
25/05:30pm 29.0 - - - - SE 17 - 9 - 1011.0 - -
25/05:00pm 28.7 - - - - SE 17 - 9 - 1011.0 1011.0 -
25/04:30pm 29.0 - - - - SE 17 - 9 - 1010.0 - -
25/04:00pm 29.0 - - - - SE 17 - 9 - 1010.0 1010.6 -
25/03:30pm 29.0 - - - - SSE 17 - 9 - 1010.0 - -
25/03:00pm 29.3 - - - - SSE 15 19 8 10 1010.7 1010.6 -
25/02:30pm 29.0 - - - - SE 15 - 8 - 1010.0 - -
25/02:00pm 29.5 - - - - SE 15 - 8 - 1011.0 1010.9 -
25/01:30pm 29.0 - - - - SE 15 - 8 - 1011.0 - -
25/01:00pm 29.5 - - - - ESE 13 - 7 - 1011.0 1011.5 -
25/12:30pm 29.0 - - - - SE 15 - 8 - 1012.0 - -
25/12:00pm 29.1 - - - - SE 17 - 9 - 1012.0 1012.3 -
25/11:30am 29.0 - - - - SE 17 - 9 - 1012.0 - -
25/11:00am 29.7 - - - - SE 15 - 8 - 1012.0 1012.8 -
25/10:30am 29.0 - - - - SE 15 - 8 - 1013.0 - -
25/10:00am 29.4 - - - - SE 15 - 8 - 1013.0 1013.2 -
25/09:30am 28.9 - - - - SE 17 19 9 10 1013.4 1013.3 -
25/09:00am 28.9 - - - - SE 15 19 8 10 1013.3 1013.2 -
25/08:30am 29.0 - - - - SE 15 - 8 - 1013.0 - -
25/08:00am 28.5 - - - - SSE 17 - 9 - 1012.0 1012.7 -
25/07:30am 28.3 - - - - SE 13 17 7 9 1012.6 1012.5 -
25/07:00am 28.3 - - - - SE 17 - 9 - 1012.0 1012.4 -
25/06:30am 28.1 - - - - SSE 17 19 9 10 1012.3 1012.2 -
25/06:00am 28.1 - - - - SSE 17 - 9 - 1012.0 1011.9 -
25/05:30am 28.0 - - - - SE 17 - 9 - 1011.0 - -
25/05:00am 27.9 - - - - SE 15 - 8 - 1011.0 1011.6 -
25/04:30am 28.1 - - - - SE 15 19 8 10 1011.8 1011.7 -
25/04:00am 28.0 - - - - SE 13 - 7 - 1011.0 1011.7 -
25/03:30am 28.0 - - - - SSE 13 - 7 - 1012.0 - -
25/03:00am 28.3 - - - - SSE 13 - 7 - 1011.0 1011.8 -
25/02:30am 28.3 - - - - SSE 13 15 7 8 1012.1 1012.0 -
25/02:00am 28.0 - - - - SE 13 - 7 - 1012.0 1012.1 -
25/01:30am 28.0 - - - - SSE 15 - 8 - 1012.0 - -
25/01:00am 28.4 - - - - SE 13 - 7 - 1012.0 1012.7 -
25/12:30am 28.0 - - - - SSE 13 - 7 - 1012.0 - -
25/12:00am 28.5 - - - - SSE 15 - 8 - 1012.0 1012.8 -
 
Date/Time
WST
Temp
°C
App
Temp
°C
Dew
Point
°C
Rel
Hum
%
Delta-T
°C
Wind Press
QNH
hPa
Press
MSL
hPa
Rain since
9am
mm
Dir  Spd
km/h
Gust
km/h
Spd
kts
Gust
kts
24/11:30pm 29.0 - - - - SSE 15 - 8 - 1013.0 - -
24/11:00pm 28.5 - - - - SSE 15 - 8 - 1013.0 1013.0 -
24/10:30pm 28.6 - - - - SE 15 15 8 8 1013.3 1013.2 -
24/10:00pm 28.4 - - - - SE 13 15 7 8 1013.3 1013.2 -
24/09:30pm 29.0 - - - - SSE 11 - 6 - 1013.0 - -
24/09:00pm 28.6 - - - - SSE 9 - 5 - 1013.0 1013.1 -
24/08:30pm 28.6 - - - - SE 11 11 6 6 1013.0 1012.9 -
24/08:00pm 28.6 - - - - SSE 11 13 6 7 1013.0 1012.9 -
24/07:30pm 29.0 - - - - SSE 11 - 6 - 1012.0 - -
24/07:00pm 28.7 - - - - SE 13 - 7 - 1012.0 1012.4 -
24/06:30pm 29.0 - - - - SSE 9 - 5 - 1012.0 - -
24/06:00pm 28.6 - - - - SSE 11 - 6 - 1011.0 1011.8 -
24/05:30pm 29.0 - - - - SSE 13 - 7 - 1011.0 - -
24/05:00pm 28.7 - - - - SE 15 - 8 - 1011.0 1011.3 -
24/04:30pm 29.0 - - - - SE 15 - 8 - 1011.0 - -
24/04:00pm 28.9 - - - - SE 15 17 8 9 1010.7 1010.6 -
24/03:30pm 29.0 - - - - SSE 17 - 9 - 1010.0 - -
24/03:00pm 29.2 - - - - SE 15 - 8 - 1010.0 1010.5 -
24/02:30pm 29.0 - - - - SE 15 - 8 - 1010.0 - -

Other Formats:

Comma delimited format used in spreadsheet applications
http://www.bom.gov.au/fwo/IDW60801/IDW60801.94103.axf

JavaScript Object Notation format (JSON) in row-major order
http://www.bom.gov.au/fwo/IDW60801/IDW60801.94103.json